createdAt,value
2018-12-14T00:00:35.454Z,37.59
2018-12-14T00:03:03.818Z,37.15
2018-12-14T00:05:32.087Z,37.45
2018-12-14T00:08:01.226Z,36.72
2018-12-14T00:10:29.560Z,36.24
2018-12-14T00:12:57.881Z,37.06
2018-12-14T00:15:26.180Z,36.29
2018-12-14T00:17:54.658Z,35.96
2018-12-14T00:20:23.198Z,36.24
2018-12-14T00:22:51.501Z,36.30
2018-12-14T00:25:19.989Z,36.67
2018-12-14T00:27:48.292Z,36.31
2018-12-14T00:30:16.570Z,36.38
2018-12-14T00:32:44.893Z,37.00
2018-12-14T00:35:13.490Z,36.37
2018-12-14T00:37:41.913Z,36.34
2018-12-14T00:40:10.293Z,35.86
2018-12-14T00:42:38.645Z,36.03
2018-12-14T00:45:06.909Z,36.89
2018-12-14T00:47:35.222Z,36.48
2018-12-14T00:50:03.494Z,35.82
2018-12-14T00:52:32.066Z,35.90
2018-12-14T00:55:00.521Z,35.54
2018-12-14T00:57:28.889Z,36.15
2018-12-14T00:59:57.190Z,35.83
2018-12-14T01:02:30.502Z,36.19
2018-12-14T01:04:58.999Z,36.32
2018-12-14T01:07:27.491Z,36.15
2018-12-14T01:09:55.930Z,37.17
2018-12-14T01:12:24.360Z,36.37
2018-12-14T01:14:52.859Z,37.03
2018-12-14T01:17:21.196Z,36.75
2018-12-14T01:19:49.664Z,36.59
2018-12-14T01:22:18.057Z,36.42
2018-12-14T01:24:46.486Z,37.53
2018-12-14T01:27:14.788Z,36.32
2018-12-14T01:29:43.109Z,36.52
2018-12-14T01:32:11.443Z,35.83
2018-12-14T01:34:39.842Z,36.09
2018-12-14T01:37:08.330Z,35.74
2018-12-14T01:39:36.650Z,35.49
2018-12-14T01:42:05.220Z,36.45
2018-12-14T01:44:34.094Z,36.65
2018-12-14T01:47:02.418Z,35.87
2018-12-14T01:49:30.802Z,35.89
2018-12-14T01:51:59.201Z,35.86
2018-12-14T01:54:27.570Z,36.29
2018-12-14T01:56:55.935Z,36.39
2018-12-14T01:59:24.270Z,36.10
2018-12-14T02:01:52.574Z,36.56
2018-12-14T02:04:21.991Z,36.43
2018-12-14T02:06:50.521Z,35.88
2018-12-14T02:09:18.784Z,35.41
2018-12-14T02:11:47.144Z,36.50
2018-12-14T02:14:15.709Z,36.09
2018-12-14T02:16:44.005Z,35.51
2018-12-14T02:19:12.309Z,35.47
2018-12-14T02:21:40.786Z,35.50
2018-12-14T02:24:09.089Z,36.07
2018-12-14T02:26:37.460Z,35.86
2018-12-14T02:29:06.206Z,36.07
2018-12-14T02:31:34.655Z,36.65
2018-12-14T02:34:03.313Z,35.87
2018-12-14T02:36:31.637Z,35.49
2018-12-14T02:39:00.150Z,35.93
2018-12-14T02:41:28.434Z,35.08
2018-12-14T02:43:56.647Z,34.97
2018-12-14T02:46:25.098Z,35.58
2018-12-14T02:48:53.944Z,35.80
2018-12-14T02:51:22.276Z,35.90
2018-12-14T02:53:51.940Z,36.61
2018-12-14T02:56:20.326Z,35.53
2018-12-14T02:58:48.614Z,35.63
2018-12-14T03:01:16.994Z,35.94
2018-12-14T03:03:45.306Z,36.42
2018-12-14T03:06:13.564Z,35.89
2018-12-14T03:08:41.963Z,35.33
2018-12-14T03:11:10.378Z,35.00
2018-12-14T03:13:38.695Z,35.06
2018-12-14T03:16:07.035Z,34.87
2018-12-14T03:18:36.002Z,34.55
2018-12-14T03:21:04.387Z,35.03
2018-12-14T03:23:32.794Z,35.41
2018-12-14T03:26:01.092Z,35.37
2018-12-14T03:28:29.377Z,35.45
2018-12-14T03:30:57.717Z,36.23
2018-12-14T03:33:26.129Z,36.73
2018-12-14T03:35:54.551Z,35.91
2018-12-14T03:38:22.850Z,35.88
2018-12-14T03:40:51.166Z,35.93
2018-12-14T03:43:19.507Z,35.32
2018-12-14T03:45:48.012Z,35.69
2018-12-14T03:48:16.594Z,36.30
2018-12-14T03:50:44.917Z,36.83
2018-12-14T03:53:13.347Z,35.89
2018-12-14T03:55:41.673Z,35.41
2018-12-14T03:58:09.929Z,34.92
2018-12-14T04:00:38.530Z,35.54
2018-12-14T04:03:07.563Z,36.58
2018-12-14T04:05:36.133Z,36.34
2018-12-14T04:08:04.446Z,36.75
2018-12-14T04:10:32.710Z,35.84
2018-12-14T04:13:01.179Z,35.68
2018-12-14T04:15:29.581Z,35.92
2018-12-14T04:17:57.892Z,35.18
2018-12-14T04:20:26.239Z,35.65
2018-12-14T04:22:54.599Z,35.27
2018-12-14T04:25:22.915Z,35.80
2018-12-14T04:27:51.246Z,35.37
2018-12-14T04:30:19.646Z,35.79
2018-12-14T04:32:48.033Z,36.48
2018-12-14T04:35:16.415Z,36.40
2018-12-14T04:37:44.719Z,36.57
2018-12-14T04:40:13.167Z,35.47
2018-12-14T04:42:48.610Z,35.58
2018-12-14T04:45:11.973Z,35.63
2018-12-14T04:47:40.270Z,35.35
2018-12-14T04:50:08.771Z,35.87
2018-12-14T04:52:38.863Z,35.80
2018-12-14T04:55:07.285Z,35.01
2018-12-14T04:57:35.586Z,35.13
2018-12-14T05:00:04.625Z,34.88
2018-12-14T05:02:32.899Z,35.15
2018-12-14T05:05:01.205Z,35.12
2018-12-14T05:07:29.527Z,35.03
2018-12-14T05:09:58.121Z,35.21
2018-12-14T05:12:26.579Z,35.63
2018-12-14T05:14:55.047Z,34.81
2018-12-14T05:17:23.422Z,34.97
2018-12-14T05:19:51.928Z,35.40
2018-12-14T05:22:20.190Z,35.11
2018-12-14T05:24:48.467Z,36.60
2018-12-14T05:27:16.850Z,35.29
2018-12-14T05:29:45.764Z,35.41
2018-12-14T05:32:14.105Z,34.84
2018-12-14T05:34:42.736Z,35.11
2018-12-14T05:37:11.062Z,35.28
2018-12-14T05:39:39.354Z,35.40
2018-12-14T05:42:07.835Z,35.91
2018-12-14T05:44:36.080Z,35.25
2018-12-14T05:47:04.549Z,35.26
2018-12-14T05:49:32.971Z,35.30
2018-12-14T05:52:01.369Z,35.76
2018-12-14T05:54:29.702Z,35.91
2018-12-14T05:56:58.034Z,35.99
2018-12-14T05:59:26.359Z,34.97
2018-12-14T06:01:54.781Z,35.64
2018-12-14T06:04:23.119Z,35.73
2018-12-14T06:06:51.534Z,35.48
2018-12-14T06:09:19.851Z,35.52
2018-12-14T06:11:48.338Z,35.69
2018-12-14T06:14:16.655Z,35.46
2018-12-14T06:20:16.156Z,34.96
2018-12-14T06:22:44.482Z,35.12
2018-12-14T06:25:13.416Z,35.42
2018-12-14T06:27:42.006Z,35.64
2018-12-14T06:30:11.666Z,34.92
2018-12-14T06:41:12.025Z,34.72
2018-12-14T06:43:40.408Z,35.61
2018-12-14T06:46:08.656Z,36.00
2018-12-14T06:48:37.188Z,34.74
2018-12-14T06:51:05.985Z,34.66
2018-12-14T06:53:34.333Z,35.15
2018-12-14T06:56:02.854Z,35.19
2018-12-14T06:58:31.175Z,35.10
2018-12-14T07:00:59.693Z,34.47
2018-12-14T07:03:28.856Z,34.60
2018-12-14T07:05:58.999Z,35.37
2018-12-14T07:08:27.326Z,35.12
2018-12-14T07:10:55.639Z,35.45
2018-12-14T07:13:24.117Z,34.74
2018-12-14T07:15:52.488Z,34.98
2018-12-14T07:18:20.773Z,34.69
2018-12-14T07:20:49.453Z,35.66
2018-12-14T07:23:17.783Z,34.91
2018-12-14T07:25:46.166Z,34.98
2018-12-14T07:28:14.428Z,35.21
2018-12-14T07:30:42.686Z,35.34
2018-12-14T07:33:11.092Z,34.79
2018-12-14T07:35:42.108Z,34.63
2018-12-14T07:38:22.103Z,36.36
2018-12-14T07:47:39.254Z,35.55
2018-12-14T07:50:08.337Z,35.50
2018-12-14T07:52:36.899Z,35.40
2018-12-14T07:55:06.670Z,35.46
2018-12-14T07:57:35.045Z,35.79
2018-12-14T08:00:03.628Z,35.63
2018-12-14T08:02:32.131Z,35.50
2018-12-14T08:11:30.823Z,35.49
2018-12-14T08:13:59.163Z,35.34
2018-12-14T08:16:27.520Z,36.09
2018-12-14T08:18:55.971Z,35.60
2018-12-14T08:21:24.681Z,35.43
2018-12-14T08:23:53.155Z,35.98
2018-12-14T08:26:21.519Z,36.21
2018-12-14T08:31:40.498Z,35.93
2018-12-14T08:34:08.966Z,35.60
2018-12-14T08:36:37.391Z,35.59
2018-12-14T08:39:07.983Z,35.21
2018-12-14T08:41:37.983Z,35.81
2018-12-14T08:44:06.689Z,35.47
2018-12-14T08:46:35.090Z,36.14
2018-12-14T08:49:03.371Z,35.70
2018-12-14T08:51:31.935Z,34.82
2018-12-14T08:54:00.575Z,33.86
2018-12-14T08:56:28.914Z,34.95
2018-12-14T08:58:57.252Z,35.25
2018-12-14T09:01:25.558Z,34.98
2018-12-14T09:03:53.941Z,36.52
2018-12-14T09:06:22.292Z,35.81
2018-12-14T09:08:50.651Z,35.49
2018-12-14T09:11:19.047Z,34.87
2018-12-14T09:13:48.038Z,34.79
2018-12-14T09:16:16.554Z,35.93
2018-12-14T09:18:45.514Z,35.92
2018-12-14T09:21:13.884Z,34.76
2018-12-14T09:23:42.960Z,35.77
2018-12-14T09:26:11.275Z,34.70
2018-12-14T09:28:39.927Z,35.21
2018-12-14T09:31:08.338Z,34.97
2018-12-14T09:33:36.635Z,34.75
2018-12-14T09:36:05.081Z,35.13
2018-12-14T09:38:33.431Z,35.39
2018-12-14T09:41:01.791Z,34.92
2018-12-14T09:43:30.066Z,35.21
2018-12-14T09:45:58.842Z,34.77
2018-12-14T09:48:27.341Z,34.03
2018-12-14T09:50:55.820Z,34.83
2018-12-14T09:53:24.103Z,34.46
2018-12-14T09:55:52.495Z,34.76
2018-12-14T09:58:20.899Z,35.47
2018-12-14T10:00:49.281Z,35.89
2018-12-14T10:03:17.645Z,36.52
2018-12-14T10:05:46.306Z,35.75
2018-12-14T10:08:14.810Z,34.91
2018-12-14T10:10:43.533Z,34.32
2018-12-14T10:13:11.935Z,34.50
2018-12-14T10:15:40.235Z,34.09
2018-12-14T10:18:08.588Z,34.73
2018-12-14T10:20:36.891Z,35.03
2018-12-14T10:23:05.516Z,34.02
2018-12-14T10:25:33.935Z,33.60
2018-12-14T10:28:02.279Z,34.50
2018-12-14T10:30:30.647Z,34.68
2018-12-14T10:32:59.006Z,34.73
2018-12-14T10:35:27.408Z,34.35
2018-12-14T10:37:55.866Z,34.15
2018-12-14T10:40:24.260Z,34.48
2018-12-14T10:42:52.604Z,33.24
2018-12-14T10:45:22.117Z,33.86
2018-12-14T10:47:50.528Z,33.76
2018-12-14T10:50:18.889Z,33.39
2018-12-14T10:52:47.403Z,33.91
2018-12-14T10:55:15.727Z,34.13
2018-12-14T10:57:44.537Z,34.06
2018-12-14T11:00:20.824Z,34.65
2018-12-14T11:02:49.155Z,33.81
2018-12-14T11:05:17.587Z,33.83
2018-12-14T11:07:45.898Z,33.78
2018-12-14T11:10:14.456Z,35.24
2018-12-14T11:12:42.756Z,34.13
2018-12-14T11:15:11.058Z,34.29
2018-12-14T11:17:39.415Z,34.42
2018-12-14T11:20:09.463Z,33.86
2018-12-14T11:22:37.874Z,33.91
2018-12-14T11:25:07.435Z,33.25
2018-12-14T11:27:35.922Z,33.67
2018-12-14T11:30:04.456Z,34.60
2018-12-14T11:32:32.755Z,34.05
2018-12-14T11:35:01.148Z,33.74
2018-12-14T11:37:29.720Z,34.13
2018-12-14T11:39:58.240Z,35.12
2018-12-14T11:42:27.189Z,34.83
2018-12-14T11:44:56.360Z,34.34
2018-12-14T11:47:24.939Z,33.77
2018-12-14T11:49:53.281Z,34.28
2018-12-14T11:52:21.935Z,34.45
2018-12-14T11:54:50.236Z,34.19
2018-12-14T11:57:18.662Z,34.41
2018-12-14T11:59:47.202Z,34.20
2018-12-14T12:02:15.654Z,34.09
2018-12-14T12:04:45.080Z,33.49
2018-12-14T12:07:14.013Z,33.99
2018-12-14T12:09:42.444Z,33.79
2018-12-14T12:12:10.852Z,33.65
2018-12-14T12:14:39.290Z,33.47
2018-12-14T12:17:07.664Z,33.85
2018-12-14T12:19:36.020Z,33.88
2018-12-14T12:22:04.311Z,33.54
2018-12-14T12:24:32.657Z,33.29
2018-12-14T12:27:01.017Z,33.49
2018-12-14T12:29:29.406Z,34.43
2018-12-14T12:31:57.760Z,34.00
2018-12-14T12:34:27.063Z,34.13
2018-12-14T12:36:55.445Z,33.20
2018-12-14T12:39:23.744Z,33.83
2018-12-14T12:41:52.163Z,33.59
2018-12-14T12:44:21.377Z,34.80
2018-12-14T12:46:49.702Z,33.47
2018-12-14T12:49:18.354Z,33.16
2018-12-14T12:51:46.981Z,33.06
2018-12-14T12:54:15.308Z,34.03
2018-12-14T12:56:43.714Z,33.71
2018-12-14T12:59:12.038Z,33.65
2018-12-14T13:01:40.355Z,34.13
2018-12-14T13:04:08.824Z,33.52
2018-12-14T13:06:37.208Z,32.78
2018-12-14T13:09:06.230Z,33.59
2018-12-14T13:11:34.758Z,33.12
2018-12-14T13:14:03.290Z,33.79
2018-12-14T13:16:31.571Z,33.16
2018-12-14T13:18:59.948Z,33.77
2018-12-14T13:21:28.809Z,33.95
2018-12-14T13:23:57.613Z,34.01
2018-12-14T13:26:25.945Z,33.71
2018-12-14T13:28:54.341Z,34.15
2018-12-14T13:31:29.133Z,33.75
2018-12-14T13:33:57.466Z,34.85
2018-12-14T13:36:25.986Z,34.78
2018-12-14T13:38:54.314Z,34.38
2018-12-14T13:41:23.376Z,34.27
2018-12-14T13:43:51.879Z,34.75
2018-12-14T13:46:20.479Z,34.20
2018-12-14T13:48:49.215Z,33.85
2018-12-14T13:51:17.630Z,33.52
2018-12-14T13:53:46.140Z,33.87
2018-12-14T13:56:14.463Z,33.73
2018-12-14T13:58:42.929Z,34.54
2018-12-14T14:01:11.805Z,34.88
2018-12-14T14:03:40.283Z,34.95
2018-12-14T14:06:09.947Z,34.58
2018-12-14T14:08:38.231Z,33.86
2018-12-14T14:11:06.592Z,35.24
2018-12-14T14:13:35.570Z,34.90
2018-12-14T14:16:03.865Z,35.26
2018-12-14T14:18:32.265Z,34.98
2018-12-14T14:21:00.689Z,35.11
2018-12-14T14:23:29.069Z,34.74
2018-12-14T14:25:57.620Z,34.27
2018-12-14T14:28:26.047Z,35.38
2018-12-14T14:30:54.627Z,35.04
2018-12-14T14:33:23.069Z,34.26
2018-12-14T14:35:51.965Z,34.56
2018-12-14T14:38:20.506Z,35.73
2018-12-14T14:40:48.907Z,34.53
2018-12-14T14:43:17.534Z,34.81
2018-12-14T14:45:46.329Z,35.00
2018-12-14T14:48:17.049Z,34.56
2018-12-14T14:50:45.857Z,34.79
2018-12-14T14:53:14.436Z,35.28
2018-12-14T14:55:42.778Z,35.72
2018-12-14T14:58:11.130Z,35.52
2018-12-14T15:00:39.501Z,35.28
2018-12-14T15:03:08.140Z,35.65
2018-12-14T15:05:36.722Z,35.88
2018-12-14T15:08:05.403Z,35.56
2018-12-14T15:10:33.742Z,35.18
2018-12-14T15:13:02.124Z,36.01
2018-12-14T15:15:31.072Z,35.37
2018-12-14T15:17:59.394Z,35.48
2018-12-14T15:20:27.902Z,35.40
2018-12-14T15:22:56.380Z,35.75
2018-12-14T15:25:24.787Z,35.19
2018-12-14T15:27:53.105Z,34.83
2018-12-14T15:30:21.559Z,35.61
2018-12-14T15:32:49.991Z,34.64
2018-12-14T15:35:18.495Z,35.12
2018-12-14T15:37:46.816Z,34.95
2018-12-14T15:40:15.255Z,35.17
2018-12-14T15:42:44.054Z,35.06
2018-12-14T15:45:13.423Z,35.48
2018-12-14T15:47:42.183Z,35.25
2018-12-14T15:50:10.662Z,35.25
2018-12-14T15:52:39.379Z,35.52
2018-12-14T15:55:07.998Z,35.29
2018-12-14T15:57:36.667Z,35.32
2018-12-14T16:00:05.790Z,35.83
2018-12-14T16:02:34.329Z,35.62
2018-12-14T16:05:02.983Z,35.49
2018-12-14T16:07:31.537Z,35.76
2018-12-14T16:09:59.863Z,34.86
2018-12-14T16:12:28.191Z,35.49
2018-12-14T16:14:56.653Z,35.64
2018-12-14T16:17:25.040Z,35.36
2018-12-14T16:19:53.427Z,35.09
2018-12-14T16:22:21.994Z,35.76
2018-12-14T16:24:50.355Z,35.04
2018-12-14T16:27:18.835Z,35.00
2018-12-14T16:29:47.336Z,34.71
2018-12-14T16:32:15.764Z,34.76
2018-12-14T16:34:44.717Z,35.06
2018-12-14T16:37:13.245Z,34.63
2018-12-14T16:39:42.469Z,35.33
2018-12-14T16:42:10.850Z,34.52
2018-12-14T16:44:39.362Z,35.25
2018-12-14T16:47:07.778Z,35.21
2018-12-14T16:49:36.275Z,34.67
2018-12-14T16:52:04.932Z,35.22
2018-12-14T16:54:33.289Z,34.67
2018-12-14T16:57:01.678Z,34.84
2018-12-14T16:59:30.043Z,35.05
2018-12-14T17:01:58.363Z,35.49
2018-12-14T17:04:26.772Z,35.32
2018-12-14T17:06:55.482Z,35.44
2018-12-14T17:09:23.997Z,35.84
2018-12-14T17:11:52.474Z,35.66
2018-12-14T17:14:21.007Z,35.72
2018-12-14T17:16:49.532Z,35.29
2018-12-14T17:19:18.094Z,35.71
2018-12-14T17:21:46.420Z,35.25
2018-12-14T17:24:15.137Z,36.12
2018-12-14T17:26:43.915Z,35.38
2018-12-14T17:29:12.958Z,36.08
2018-12-14T17:31:41.537Z,36.04
2018-12-14T17:34:10.307Z,35.23
2018-12-14T17:36:38.801Z,35.99
2018-12-14T17:39:07.988Z,35.68
2018-12-14T17:41:40.447Z,35.96
2018-12-14T17:44:09.710Z,35.58
2018-12-14T17:46:38.388Z,35.40
2018-12-14T17:49:06.755Z,35.36
2018-12-14T17:51:35.468Z,36.46
2018-12-14T17:54:03.824Z,35.92
2018-12-14T17:56:32.196Z,35.86
2018-12-14T17:59:00.536Z,35.86
2018-12-14T18:01:28.999Z,35.60
2018-12-14T18:03:57.300Z,35.49
2018-12-14T18:06:25.641Z,35.21
2018-12-14T18:08:53.998Z,35.17
2018-12-14T18:11:22.375Z,35.39
2018-12-14T18:13:50.889Z,35.46
2018-12-14T18:16:19.623Z,35.23
2018-12-14T18:18:47.966Z,34.53
2018-12-14T18:21:16.280Z,35.88
2018-12-14T18:23:44.824Z,35.40
2018-12-14T18:26:13.121Z,35.49
2018-12-14T18:28:41.531Z,35.76
2018-12-14T18:31:09.904Z,36.37
2018-12-14T18:33:38.296Z,35.00
2018-12-14T18:36:06.709Z,35.85
2018-12-14T18:38:35.035Z,35.60
2018-12-14T18:41:03.334Z,34.70
2018-12-14T18:43:31.722Z,35.07
2018-12-14T18:46:00.004Z,35.07
2018-12-14T18:48:28.308Z,34.83
2018-12-14T18:50:57.109Z,35.05
2018-12-14T18:53:25.489Z,36.02
2018-12-14T18:55:53.930Z,35.44
2018-12-14T18:58:22.257Z,35.12
2018-12-14T19:00:50.827Z,36.15
2018-12-14T19:03:19.235Z,35.93
2018-12-14T19:05:47.694Z,35.51
2018-12-14T19:08:16.262Z,36.90
2018-12-14T19:10:44.677Z,39.87
2018-12-14T19:13:13.223Z,37.56
2018-12-14T19:15:41.649Z,36.93
2018-12-14T19:18:09.987Z,39.68
2018-12-14T19:20:38.289Z,40.72
2018-12-14T19:23:06.641Z,40.12
2018-12-14T19:25:35.644Z,35.97
2018-12-14T19:28:04.179Z,37.99
2018-12-14T19:30:32.492Z,37.71
2018-12-14T19:33:00.967Z,37.07
2018-12-14T19:35:29.413Z,35.69
2018-12-14T19:37:57.979Z,36.69
2018-12-14T19:40:26.522Z,37.66
2018-12-14T19:42:54.929Z,39.38
2018-12-14T19:45:23.334Z,38.47
2018-12-14T19:47:51.631Z,36.05
2018-12-14T19:50:20.198Z,38.33
2018-12-14T19:52:48.521Z,37.97
2018-12-14T19:55:17.028Z,37.29
2018-12-14T19:57:45.379Z,38.48
2018-12-14T20:00:13.862Z,37.89
2018-12-14T20:02:42.194Z,36.84
2018-12-14T20:05:10.508Z,38.97
2018-12-14T20:07:38.859Z,36.79
2018-12-14T20:10:08.436Z,37.61
2018-12-14T20:12:37.078Z,37.04
2018-12-14T20:15:06.201Z,36.71
2018-12-14T20:17:34.639Z,37.77
2018-12-14T20:20:02.933Z,41.11
2018-12-14T20:22:31.248Z,38.43
2018-12-14T20:24:59.653Z,37.37
2018-12-14T20:27:28.228Z,36.68
2018-12-14T20:29:56.598Z,39.38
2018-12-14T20:32:24.985Z,37.88
2018-12-14T20:34:54.234Z,37.71
2018-12-14T20:37:22.657Z,39.67
2018-12-14T20:39:51.130Z,37.27
2018-12-14T20:42:20.007Z,38.01
2018-12-14T20:44:48.715Z,39.37
2018-12-14T20:47:17.139Z,39.90
2018-12-14T20:49:45.518Z,37.00
2018-12-14T20:52:13.903Z,37.98
2018-12-14T20:54:42.487Z,36.10
2018-12-14T20:57:11.131Z,39.02
2018-12-14T20:59:39.461Z,34.89
2018-12-14T21:02:08.244Z,35.44
2018-12-14T21:04:36.934Z,35.18
2018-12-14T21:07:05.321Z,35.07
2018-12-14T21:09:33.957Z,35.08
2018-12-14T21:12:02.399Z,35.33
2018-12-14T21:14:30.965Z,35.08
2018-12-14T21:16:59.786Z,35.20
2018-12-14T21:19:28.137Z,35.39
2018-12-14T21:21:57.399Z,35.18
2018-12-14T21:24:25.873Z,35.24
2018-12-14T21:26:54.328Z,34.42
2018-12-14T21:29:22.767Z,34.11
2018-12-14T21:31:51.132Z,34.35
2018-12-14T21:34:19.731Z,34.90
2018-12-14T21:36:48.185Z,35.19
2018-12-14T21:39:16.845Z,34.07
2018-12-14T21:41:45.452Z,34.47
2018-12-14T21:44:13.737Z,34.34
2018-12-14T21:46:42.119Z,34.86
2018-12-14T21:49:10.449Z,34.57
2018-12-14T21:51:38.818Z,34.45
2018-12-14T21:54:07.123Z,35.82
2018-12-14T21:56:35.562Z,35.16
2018-12-14T21:59:04.225Z,34.79
2018-12-14T22:01:32.740Z,34.72
2018-12-14T22:04:01.118Z,34.60
2018-12-14T22:06:30.450Z,34.55
2018-12-14T22:08:59.343Z,34.99
2018-12-14T22:11:27.765Z,34.79
2018-12-14T22:13:56.220Z,34.89
2018-12-14T22:16:24.540Z,35.40
2018-12-14T22:18:52.861Z,34.98
2018-12-14T22:21:23.974Z,34.46
2018-12-14T22:23:52.604Z,34.91
2018-12-14T22:26:21.290Z,35.21
2018-12-14T22:28:50.261Z,35.55
2018-12-14T22:31:19.061Z,35.55
2018-12-14T22:38:44.361Z,34.39
2018-12-14T22:41:12.911Z,34.76
2018-12-14T22:43:41.345Z,35.00
2018-12-14T22:46:09.865Z,34.62
2018-12-14T22:48:39.256Z,35.26
2018-12-14T22:51:07.800Z,34.67
2018-12-14T22:53:36.340Z,35.51
2018-12-14T22:56:04.834Z,35.77
2018-12-14T22:58:33.299Z,35.71
2018-12-14T23:01:01.809Z,35.25
2018-12-14T23:03:30.316Z,35.08
2018-12-14T23:05:59.206Z,34.90
2018-12-14T23:08:27.559Z,35.96
2018-12-14T23:10:55.918Z,35.29
2018-12-14T23:13:24.320Z,35.57
2018-12-14T23:15:55.449Z,36.01
2018-12-14T23:18:26.925Z,35.78
2018-12-14T23:20:55.522Z,35.88
2018-12-14T23:23:24.327Z,35.83
2018-12-14T23:25:53.191Z,35.97
2018-12-14T23:28:21.578Z,36.09
2018-12-14T23:31:07.666Z,35.58
2018-12-14T23:33:39.652Z,36.07
2018-12-14T23:36:08.023Z,35.43
2018-12-14T23:38:38.122Z,35.96
2018-12-14T23:41:08.715Z,35.82
2018-12-14T23:43:37.235Z,35.27
2018-12-14T23:46:07.265Z,34.92
2018-12-14T23:48:35.622Z,36.33
2018-12-14T23:51:04.455Z,36.41
2018-12-14T23:53:32.834Z,35.48
2018-12-14T23:56:02.022Z,36.46
2018-12-14T23:58:30.486Z,35.98
